Lokaal brand risico:
CBI


Regionaal brand risico: Meer informatie


Weerstation
Sluispark-LeuvenLeuven-Sluispark



info button van: 24-07-2019 01:59    tot: 25-07-2019 23:59 waarschuwing voor: Extreme hitte niveau: Rood   Extreme hitte

Nabijgelegen vliegvelden - METAR rapporten

   
EBBR - Wilsele bij Leuven
Gewijzigd: 24-07-2019 02:50
Helder    Wind: ZO 7.4 km/h
Helder
Wind: Wind: ZO 7.4 km/h
Temperatuur: 22°C
Dauwpunt: 14°C
Vochtigheid: 61%
Barometer: 1015 hPa
Zicht: meer dan 10 km
Bewolking: Helder
EBBR 240050Z 13004KT CAVOK 22/14 Q1015 NOSIG
EBAW - Antwerp
Gewijzigd: 24-07-2019 02:50
Helder    Wind: OZO 3.7 km/h
Helder
Wind: Wind: OZO 3.7 km/h
Temperatuur: 21°C
Dauwpunt: 16°C
Vochtigheid: 73%
Barometer: 1014 hPa
Zicht: meer dan 10 km
Bewolking: Helder
EBAW 240050Z AUTO 12002KT CAVOK 21/16 Q1014
EBLG - Li├Ęge
Gewijzigd: 24-07-2019 02:50
Helder    Wind: ZO 13 km/h
Helder
Wind: Wind: ZO 13 km/h
Temperatuur: 26°C
Dauwpunt: 13°C
Vochtigheid: 45%
Barometer: 1016 hPa
Zicht: meer dan 10 km
Bewolking: Helder
EBLG 240050Z 14007KT 120V180 CAVOK 26/13 Q1016 NOSIG
EBCV - Mons/Bergen
Gewijzigd: 24-07-2019 02:55
Helder    Wind: OZO 13 km/h
Helder
Wind: Wind: OZO 13 km/h
Temperatuur: 20°C
Dauwpunt: 15°C
Vochtigheid: 73%
Barometer: 1014 hPa
Bewolking: Helder
Zicht: meer dan 10 km
Bewolking: Helder
EBCV 240055Z AUTO 12007KT 9999 NCD 20/15 Q1014 BLU
EHBK - Maastricht
Gewijzigd: 24-07-2019 02:55
Gedeeltelijk bewolkt    Wind: ZZO 9.3 km/h
Gedeeltelijk bewolkt
Wind: Wind: ZZO 9.3 km/h
Temperatuur: 25°C
Dauwpunt: 13°C
Vochtigheid: 47%
Barometer: 1015 hPa
Bewolking: Gedeeltelijk bewolkt
Zicht: meer dan 10 km
Bewolking: Gedeeltelijk bewolkt
EHBK 240055Z AUTO 16005KT 9999 NSC 25/13 Q1015
ELLX - Luxemburg
Gewijzigd: 24-07-2019 02:50
Helder    Wind: NNO 14.8 km/h
Helder
Wind: Wind: NNO 14.8 km/h
Temperatuur: 24°C
Dauwpunt: 12°C
Vochtigheid: 47%
Barometer: 1017 hPa
Bewolking: Helder
Zicht: meer dan 10 km
Bewolking: Helder
ELLX 240050Z AUTO 03008KT 9999 NCD 24/12 Q1017 NOSIG
EBOS - Oostende
Gewijzigd: 24-07-2019 02:50
Helder    Wind: Oosten 13 km/h
Helder
Wind: Wind: Oosten 13 km/h
Temperatuur: 21°C
Dauwpunt: 17°C
Vochtigheid: 78%
Barometer: 1013 hPa
Zicht: meer dan 10 km
Bewolking: Helder
EBOS 240050Z 10007KT CAVOK 21/17 Q1013 NOSIG
  

Script ontwikkeld door  Saratoga-weather.org Aangepast voor de template door  Weerstation Leuven

U vindt ons ook hier:

UK Metoffice

WeatherCloud

European Weather Network

Weather Underground

Benelux Weather Network

AWEKAS

WeatherlinkIP

Het Weer Aktueel

Apparatuur in gebruik:

Weer-station
Davis VP2 weatherstation

Weer-programma
Meteobridge

Weer-computer
D-Link DIR-505

Webleverancier
Robohost

Davis VP2 weatherstation

Meteobridge

D-Link DIR-505

Robohost